createdAt,value
2017-06-21T00:00:38.648Z,17.14
2017-06-21T00:01:51.152Z,17.1
2017-06-21T00:03:03.642Z,17.09
2017-06-21T00:04:16.168Z,17.12
2017-06-21T00:05:28.686Z,16.97
2017-06-21T00:06:40.626Z,16.98
2017-06-21T00:07:53.150Z,16.95
2017-06-21T00:09:05.671Z,16.89
2017-06-21T00:10:18.209Z,16.82
2017-06-21T00:11:30.730Z,16.83
2017-06-21T00:12:42.935Z,16.73
2017-06-21T00:13:55.434Z,16.73
2017-06-21T00:15:07.968Z,16.64
2017-06-21T00:16:20.193Z,16.62
2017-06-21T00:17:32.748Z,16.62
2017-06-21T00:18:45.281Z,16.57
2017-06-21T00:19:57.793Z,16.51
2017-06-21T00:21:10.026Z,16.46
2017-06-21T00:22:22.543Z,16.44
2017-06-21T00:23:35.049Z,16.39
2017-06-21T00:24:47.278Z,16.34
2017-06-21T00:25:59.818Z,16.36
2017-06-21T00:27:12.335Z,16.34
2017-06-21T00:28:24.834Z,16.31
2017-06-21T00:29:37.048Z,16.28
2017-06-21T00:30:49.574Z,16.24
2017-06-21T00:32:01.796Z,16.16
2017-06-21T00:33:14.339Z,16.09
2017-06-21T00:34:26.865Z,16.09
2017-06-21T00:35:39.398Z,16.05
2017-06-21T00:36:51.931Z,15.98
2017-06-21T00:38:04.476Z,16
2017-06-21T00:39:16.973Z,15.99
2017-06-21T00:40:29.515Z,15.9
2017-06-21T00:41:42.035Z,15.76
2017-06-21T00:42:54.311Z,15.69
2017-06-21T00:44:06.877Z,15.7
2017-06-21T00:45:19.094Z,15.62
2017-06-21T00:46:31.644Z,15.62
2017-06-21T00:47:44.471Z,15.57
2017-06-21T00:48:57.007Z,15.47
2017-06-21T00:50:09.563Z,15.44
2017-06-21T00:51:22.103Z,15.41
2017-06-21T00:52:34.641Z,15.44
2017-06-21T00:53:47.197Z,15.33
2017-06-21T00:54:59.690Z,15.33
2017-06-21T00:56:12.211Z,15.18
2017-06-21T00:57:24.736Z,15.17
2017-06-21T00:58:37.296Z,15.12
2017-06-21T00:59:49.820Z,15.08
2017-06-21T01:01:02.043Z,15.02
2017-06-21T01:02:14.566Z,15.05
2017-06-21T01:03:27.115Z,15.02
2017-06-21T01:04:39.338Z,15
2017-06-21T01:05:51.853Z,14.9
2017-06-21T01:07:04.395Z,14.9
2017-06-21T01:08:16.949Z,14.92
2017-06-21T01:09:29.766Z,14.85
2017-06-21T01:10:42.308Z,14.73
2017-06-21T01:11:54.850Z,14.78
2017-06-21T01:13:07.404Z,14.74
2017-06-21T01:14:19.909Z,14.73
2017-06-21T01:15:31.838Z,14.7
2017-06-21T01:16:44.062Z,14.66
2017-06-21T01:17:56.584Z,14.62
2017-06-21T01:19:08.812Z,14.59
2017-06-21T01:20:21.633Z,14.55
2017-06-21T01:21:34.182Z,14.63
2017-06-21T01:22:46.723Z,14.56
2017-06-21T01:23:59.260Z,14.52
2017-06-21T01:25:11.780Z,14.59
2017-06-21T01:26:24.334Z,14.43
2017-06-21T01:27:36.830Z,14.38
2017-06-21T01:28:49.354Z,14.51
2017-06-21T01:30:01.875Z,14.43
2017-06-21T01:31:14.414Z,14.48
2017-06-21T01:32:26.931Z,14.31
2017-06-21T01:33:39.452Z,14.3
2017-06-21T01:34:51.973Z,14.34
2017-06-21T01:36:04.481Z,14.18
2017-06-21T01:37:17.023Z,14.23
2017-06-21T01:38:29.545Z,14.2
2017-06-21T01:39:42.070Z,14.11
2017-06-21T01:40:54.280Z,14.08
2017-06-21T01:42:06.760Z,14.04
2017-06-21T01:43:19.302Z,14.04
2017-06-21T01:44:31.893Z,13.97
2017-06-21T01:45:44.424Z,13.98
2017-06-21T01:46:56.039Z,13.94
2017-06-21T01:48:08.281Z,13.98
2017-06-21T01:49:20.824Z,14
2017-06-21T01:50:33.054Z,13.85
2017-06-21T01:51:45.566Z,13.83
2017-06-21T01:52:57.475Z,13.78
2017-06-21T01:54:10.008Z,13.87
2017-06-21T01:55:22.532Z,13.85
2017-06-21T01:56:34.757Z,13.83
2017-06-21T01:57:47.277Z,13.76
2017-06-21T01:59:00.129Z,13.67
2017-06-21T02:00:12.698Z,13.61
2017-06-21T02:01:24.937Z,13.71
2017-06-21T02:02:37.468Z,13.61
2017-06-21T02:03:49.978Z,13.54
2017-06-21T02:05:02.500Z,13.54
2017-06-21T02:06:15.000Z,13.55
2017-06-21T02:07:27.245Z,13.5
2017-06-21T02:08:39.744Z,13.49
2017-06-21T02:09:52.295Z,13.46
2017-06-21T02:11:04.831Z,13.42
2017-06-21T02:12:17.059Z,13.39
2017-06-21T02:13:29.579Z,13.31
2017-06-21T02:14:41.816Z,13.26
2017-06-21T02:15:54.050Z,13.28
2017-06-21T02:17:06.579Z,13.3
2017-06-21T02:18:19.111Z,13.19
2017-06-21T02:19:31.357Z,13.3
2017-06-21T02:20:43.908Z,13.17
2017-06-21T02:21:56.446Z,13.16
2017-06-21T02:23:08.698Z,13.11
2017-06-21T02:24:21.233Z,13.12
2017-06-21T02:25:33.708Z,13.12
2017-06-21T02:26:45.947Z,13.12
2017-06-21T02:27:58.479Z,13.06
2017-06-21T02:29:10.722Z,13.02
2017-06-21T02:30:23.280Z,13.03
2017-06-21T02:31:35.514Z,12.99
2017-06-21T02:32:47.759Z,12.95
2017-06-21T02:34:00.287Z,12.94
2017-06-21T02:35:12.828Z,12.93
2017-06-21T02:36:25.365Z,12.91
2017-06-21T02:37:37.885Z,12.91
2017-06-21T02:38:50.410Z,12.95
2017-06-21T02:40:02.955Z,12.9
2017-06-21T02:41:15.183Z,12.86
2017-06-21T02:42:27.721Z,12.84
2017-06-21T02:43:39.676Z,12.86
2017-06-21T02:44:52.223Z,12.87
2017-06-21T02:46:04.760Z,12.78
2017-06-21T02:47:17.277Z,12.83
2017-06-21T02:48:29.806Z,12.81
2017-06-21T02:49:42.054Z,12.78
2017-06-21T02:50:54.273Z,12.83
2017-06-21T02:52:06.812Z,12.73
2017-06-21T02:53:19.315Z,12.72
2017-06-21T02:54:31.864Z,12.88
2017-06-21T02:55:44.412Z,12.8
2017-06-21T02:56:56.930Z,12.81
2017-06-21T02:58:09.473Z,12.78
2017-06-21T02:59:22.014Z,12.78
2017-06-21T03:00:34.543Z,12.78
2017-06-21T03:01:47.061Z,12.72
2017-06-21T03:02:59.585Z,12.8
2017-06-21T03:04:12.038Z,12.78
2017-06-21T03:05:24.574Z,12.69
2017-06-21T03:06:37.116Z,12.7
2017-06-21T03:07:49.641Z,12.68
2017-06-21T03:09:02.165Z,12.83
2017-06-21T03:10:14.711Z,12.66
2017-06-21T03:11:27.232Z,12.66
2017-06-21T03:12:39.458Z,12.69
2017-06-21T03:13:52.012Z,12.69
2017-06-21T03:15:04.245Z,12.68
2017-06-21T03:16:16.788Z,12.65
2017-06-21T03:17:29.284Z,12.68
2017-06-21T03:18:41.780Z,12.66
2017-06-21T03:19:54.251Z,12.61
2017-06-21T03:21:06.471Z,12.69
2017-06-21T03:22:18.692Z,12.66
2017-06-21T03:23:30.915Z,12.62
2017-06-21T03:24:43.461Z,12.58
2017-06-21T03:25:56.023Z,12.62
2017-06-21T03:27:08.543Z,12.57
2017-06-21T03:28:21.077Z,12.68
2017-06-21T03:29:33.612Z,12.53
2017-06-21T03:30:45.841Z,12.55
2017-06-21T03:31:58.380Z,12.62
2017-06-21T03:33:10.904Z,12.62
2017-06-21T03:34:23.450Z,12.55
2017-06-21T03:35:35.349Z,12.55
2017-06-21T03:36:47.867Z,12.57
2017-06-21T03:38:00.114Z,12.62
2017-06-21T03:39:12.653Z,12.57
2017-06-21T03:40:25.181Z,12.55
2017-06-21T03:41:37.979Z,12.55
2017-06-21T03:42:50.225Z,12.55
2017-06-21T03:44:02.785Z,12.53
2017-06-21T03:45:15.309Z,12.55
2017-06-21T03:46:27.835Z,12.55
2017-06-21T03:47:39.774Z,12.61
2017-06-21T03:48:52.319Z,12.54
2017-06-21T03:50:04.569Z,12.55
2017-06-21T03:51:16.819Z,12.5
2017-06-21T03:52:29.315Z,12.62
2017-06-21T03:53:41.839Z,12.61
2017-06-21T03:54:54.362Z,12.62
2017-06-21T03:56:06.899Z,12.58
2017-06-21T03:57:19.198Z,12.63
2017-06-21T03:58:31.711Z,12.61
2017-06-21T03:59:44.232Z,12.68
2017-06-21T04:00:56.456Z,12.53
2017-06-21T04:02:09.010Z,12.57
2017-06-21T04:03:21.508Z,12.7
2017-06-21T04:04:34.052Z,12.61
2017-06-21T04:05:46.591Z,12.69
2017-06-21T04:06:59.140Z,12.63
2017-06-21T04:08:11.664Z,12.65
2017-06-21T04:09:24.460Z,12.69
2017-06-21T04:10:36.978Z,12.66
2017-06-21T04:11:48.919Z,12.66
2017-06-21T04:13:01.445Z,12.65
2017-06-21T04:14:13.670Z,12.75
2017-06-21T04:15:26.220Z,12.75
2017-06-21T04:16:38.458Z,12.75
2017-06-21T04:17:50.963Z,12.78
2017-06-21T04:19:03.501Z,12.86
2017-06-21T04:20:16.322Z,12.87
2017-06-21T04:21:28.837Z,12.81
2017-06-21T04:22:41.355Z,12.7
2017-06-21T04:23:53.586Z,12.8
2017-06-21T04:25:06.104Z,12.84
2017-06-21T04:26:18.342Z,12.84
2017-06-21T04:27:30.550Z,12.87
2017-06-21T04:28:43.134Z,12.91
2017-06-21T04:29:55.362Z,12.95
2017-06-21T04:31:07.935Z,12.88
2017-06-21T04:32:20.473Z,12.95
2017-06-21T04:33:32.979Z,12.98
2017-06-21T04:34:45.222Z,13.03
2017-06-21T04:35:57.734Z,12.99
2017-06-21T04:37:09.955Z,12.99
2017-06-21T04:38:22.505Z,13.11
2017-06-21T04:39:35.033Z,13.11
2017-06-21T04:40:47.568Z,13.17
2017-06-21T04:42:00.102Z,13.13
2017-06-21T04:43:12.321Z,13.2
2017-06-21T04:44:24.866Z,13.19
2017-06-21T04:45:37.080Z,13.27
2017-06-21T04:46:49.611Z,13.28
2017-06-21T04:48:02.179Z,13.23
2017-06-21T04:49:14.414Z,13.31
2017-06-21T04:50:26.618Z,13.39
2017-06-21T04:51:39.139Z,13.36
2017-06-21T04:52:51.656Z,13.39
2017-06-21T04:54:04.202Z,13.5
2017-06-21T04:55:16.736Z,13.5
2017-06-21T04:56:29.268Z,13.5
2017-06-21T04:57:42.123Z,13.55
2017-06-21T04:58:54.656Z,13.68
2017-06-21T05:00:06.877Z,13.65
2017-06-21T05:01:19.423Z,13.68
2017-06-21T05:02:31.953Z,13.76
2017-06-21T05:03:44.226Z,13.76
2017-06-21T05:04:56.744Z,13.86
2017-06-21T05:06:08.958Z,13.78
2017-06-21T05:07:21.478Z,13.94
2017-06-21T05:08:33.481Z,13.98
2017-06-21T05:09:45.406Z,14.04
2017-06-21T05:10:57.924Z,14.08
2017-06-21T05:12:10.145Z,14.2
2017-06-21T05:13:22.416Z,14.28
2017-06-21T05:14:34.945Z,14.34
2017-06-21T05:15:47.488Z,14.45
2017-06-21T05:17:00.021Z,14.56
2017-06-21T05:18:12.570Z,14.66
2017-06-21T05:19:25.020Z,14.73
2017-06-21T05:20:37.532Z,14.86
2017-06-21T05:21:50.081Z,14.99
2017-06-21T05:23:02.625Z,15.14
2017-06-21T05:24:15.178Z,15.37
2017-06-21T05:25:27.396Z,15.51
2017-06-21T05:26:39.941Z,15.7
2017-06-21T05:27:52.513Z,15.9
2017-06-21T05:29:05.042Z,16.17
2017-06-21T05:30:17.611Z,16.28
2017-06-21T05:31:30.132Z,16.61
2017-06-21T05:32:42.067Z,16.91
2017-06-21T05:33:54.303Z,17.12
2017-06-21T05:35:06.884Z,17.3
2017-06-21T05:36:19.412Z,17.53
2017-06-21T05:37:31.626Z,17.59
2017-06-21T05:38:43.849Z,17.6
2017-06-21T05:39:56.383Z,17.75
2017-06-21T05:41:09.189Z,17.73
2017-06-21T05:42:21.698Z,17.79
2017-06-21T05:43:34.238Z,17.84
2017-06-21T05:44:46.477Z,17.82
2017-06-21T05:45:58.726Z,17.84
2017-06-21T05:47:11.279Z,17.8
2017-06-21T05:48:23.796Z,17.72
2017-06-21T05:49:36.363Z,17.69
2017-06-21T05:50:48.892Z,17.71
2017-06-21T05:52:01.437Z,17.65
2017-06-21T05:53:13.672Z,17.53
2017-06-21T05:54:26.201Z,17.49
2017-06-21T05:55:38.768Z,17.41
2017-06-21T05:56:51.286Z,17.35
2017-06-21T05:58:03.795Z,17.24
2017-06-21T05:59:16.356Z,17.2
2017-06-21T06:00:28.574Z,17.14
2017-06-21T06:01:40.782Z,17.04
2017-06-21T06:02:53.615Z,17.1
2017-06-21T06:04:06.146Z,17.05
2017-06-21T06:05:18.681Z,17.04
2017-06-21T06:06:30.891Z,16.91
2017-06-21T06:07:43.410Z,17.07
2017-06-21T06:08:56.207Z,16.99
2017-06-21T06:10:08.427Z,16.99
2017-06-21T06:11:20.672Z,17.01
2017-06-21T06:12:32.907Z,16.97
2017-06-21T06:13:45.456Z,17.01
2017-06-21T06:14:57.983Z,17.14
2017-06-21T06:16:10.182Z,17.19
2017-06-21T06:17:22.424Z,17.24
2017-06-21T06:18:34.944Z,17.3
2017-06-21T06:19:47.457Z,17.31
2017-06-21T06:20:59.716Z,17.41
2017-06-21T06:22:11.950Z,17.52
2017-06-21T06:23:24.457Z,17.75
2017-06-21T06:24:37.269Z,18.05
2017-06-21T06:25:49.200Z,18.37
2017-06-21T06:27:01.442Z,18.78
2017-06-21T06:28:13.662Z,19.19
2017-06-21T06:29:26.212Z,19.53
2017-06-21T06:30:38.457Z,19.87
2017-06-21T06:31:50.700Z,20.15
2017-06-21T06:33:03.240Z,20.39
2017-06-21T06:34:15.493Z,20.7
2017-06-21T06:35:28.080Z,21.05
2017-06-21T06:36:40.300Z,21.22
2017-06-21T06:37:52.558Z,21.44
2017-06-21T06:39:05.119Z,21.68
2017-06-21T06:40:17.665Z,21.96
2017-06-21T06:41:30.197Z,22.25
2017-06-21T06:42:42.141Z,22.62
2017-06-21T06:43:54.376Z,22.84
2017-06-21T06:45:06.610Z,23.21
2017-06-21T06:46:18.847Z,23.58
2017-06-21T06:47:31.417Z,23.92
2017-06-21T06:48:43.664Z,24.09
2017-06-21T06:49:56.216Z,24.44
2017-06-21T06:51:08.139Z,24.61
2017-06-21T06:52:20.686Z,24.85
2017-06-21T06:53:32.631Z,25.03
2017-06-21T06:54:44.602Z,25.3
2017-06-21T06:55:56.263Z,25.48
2017-06-21T06:57:08.809Z,25.62
2017-06-21T06:58:21.094Z,25.76
2017-06-21T06:59:32.752Z,25.98
2017-06-21T07:00:44.677Z,26.26
2017-06-21T07:01:57.214Z,26.48
2017-06-21T07:03:09.743Z,26.64
2017-06-21T07:04:22.039Z,26.86
2017-06-21T07:05:34.254Z,27.11
2017-06-21T07:06:46.500Z,27.29
2017-06-21T07:07:59.048Z,27.35
2017-06-21T07:09:11.628Z,27.48
2017-06-21T07:10:24.186Z,27.58
2017-06-21T07:11:36.758Z,27.53
2017-06-21T07:12:49.333Z,27.72
2017-06-21T07:14:01.877Z,27.82
2017-06-21T07:15:14.152Z,27.83
2017-06-21T07:16:26.678Z,27.95
2017-06-21T07:17:39.223Z,27.86
2017-06-21T07:18:51.766Z,27.9
2017-06-21T07:20:04.306Z,28.06
2017-06-21T07:21:16.253Z,28.01
2017-06-21T07:22:28.484Z,28.19
2017-06-21T07:23:40.745Z,28.34
2017-06-21T07:24:52.995Z,28.41
2017-06-21T07:26:05.533Z,28.55
2017-06-21T07:27:17.504Z,28.49
2017-06-21T07:28:30.033Z,28.56
2017-06-21T07:29:42.259Z,28.56
2017-06-21T07:30:54.817Z,28.56
2017-06-21T07:32:06.750Z,28.52
2017-06-21T07:33:19.348Z,28.47
2017-06-21T07:34:31.879Z,28.47
2017-06-21T07:35:44.139Z,28.4
2017-06-21T07:36:56.707Z,28.37
2017-06-21T07:38:09.255Z,28.45
2017-06-21T07:39:21.867Z,28.55
2017-06-21T07:40:34.765Z,28.72
2017-06-21T07:41:47.020Z,28.82
2017-06-21T07:42:59.588Z,28.94
2017-06-21T07:44:12.151Z,29.05
2017-06-21T07:45:24.718Z,29.13
2017-06-21T07:46:37.267Z,29.12
2017-06-21T07:47:49.517Z,29.21
2017-06-21T07:49:01.160Z,29.18
2017-06-21T07:50:13.706Z,29.05
2017-06-21T07:51:26.276Z,29.16
2017-06-21T07:52:38.822Z,29.06
2017-06-21T07:53:51.389Z,29.1
2017-06-21T07:55:03.943Z,29.09
2017-06-21T07:56:16.518Z,29.18
2017-06-21T07:57:29.060Z,29.1
2017-06-21T07:58:41.601Z,29.3
2017-06-21T07:59:54.145Z,29.28
2017-06-21T08:01:06.390Z,29.32
2017-06-21T08:02:18.973Z,29.47
2017-06-21T08:03:31.245Z,29.49
2017-06-21T08:04:43.791Z,29.58
2017-06-21T08:05:56.050Z,29.57
2017-06-21T08:07:08.602Z,29.61
2017-06-21T08:08:21.122Z,29.57
2017-06-21T08:09:33.374Z,29.65
2017-06-21T08:10:45.618Z,29.68
2017-06-21T08:11:58.165Z,29.57
2017-06-21T08:13:10.724Z,29.43
2017-06-21T08:14:23.273Z,29.55
2017-06-21T08:15:35.819Z,29.55
2017-06-21T08:16:48.070Z,29.69
2017-06-21T08:18:00.617Z,29.79
2017-06-21T08:19:13.437Z,29.89
2017-06-21T08:20:25.714Z,30.05
2017-06-21T08:21:38.295Z,30.16
2017-06-21T08:22:50.541Z,30.16
2017-06-21T08:24:03.095Z,30.17
2017-06-21T08:25:15.062Z,30.31
2017-06-21T08:26:27.590Z,30.35
2017-06-21T08:27:40.153Z,30.33
2017-06-21T08:28:52.703Z,30.46
2017-06-21T08:30:05.249Z,30.35
2017-06-21T08:31:17.825Z,30.14
2017-06-21T08:32:30.112Z,30.14
2017-06-21T08:33:42.363Z,30.05
2017-06-21T08:34:54.637Z,30.01
2017-06-21T08:36:07.197Z,30.03
2017-06-21T08:37:19.450Z,29.98
2017-06-21T08:38:31.988Z,29.79
2017-06-21T08:39:44.234Z,29.87
2017-06-21T08:40:56.785Z,29.96
2017-06-21T08:42:09.338Z,30.05
2017-06-21T08:43:21.600Z,29.96
2017-06-21T08:44:33.850Z,29.79
2017-06-21T08:45:46.096Z,29.64
2017-06-21T08:46:58.638Z,29.59
2017-06-21T08:48:10.905Z,29.46
2017-06-21T08:49:23.464Z,29.44
2017-06-21T08:50:36.084Z,29.47
2017-06-21T08:51:48.655Z,29.58
2017-06-21T08:53:00.914Z,29.64
2017-06-21T08:54:13.196Z,29.71
2017-06-21T08:55:25.730Z,29.68
2017-06-21T08:56:38.004Z,29.62
2017-06-21T08:57:49.648Z,29.65
2017-06-21T08:59:01.907Z,29.67
2017-06-21T09:00:14.165Z,29.76
2017-06-21T09:01:26.718Z,29.89
2017-06-21T09:02:39.294Z,30.06
2017-06-21T09:03:51.584Z,29.77
2017-06-21T09:05:03.823Z,30.08
2017-06-21T09:06:16.371Z,30.17
2017-06-21T09:07:28.600Z,30.27
2017-06-21T09:08:40.861Z,30.32
2017-06-21T09:09:53.447Z,30.49
2017-06-21T09:11:06.007Z,30.51
2017-06-21T09:12:18.560Z,30.56
2017-06-21T09:13:31.078Z,30.7
2017-06-21T09:14:43.348Z,30.7
2017-06-21T09:15:55.915Z,30.86
2017-06-21T09:17:08.158Z,30.89
2017-06-21T09:18:20.688Z,30.52
2017-06-21T09:19:32.330Z,30.61
2017-06-21T09:20:44.896Z,30.7
2017-06-21T09:21:57.467Z,30.49
2017-06-21T09:23:10.045Z,30.39
2017-06-21T09:24:22.611Z,30.44
2017-06-21T09:25:35.188Z,30.02
2017-06-21T09:26:47.483Z,29.8
2017-06-21T09:28:00.047Z,29.77
2017-06-21T09:29:12.630Z,29.77
2017-06-21T09:30:24.596Z,29.94
2017-06-21T09:31:36.862Z,29.94
2017-06-21T09:32:49.408Z,30.08
2017-06-21T09:34:01.683Z,30.32
2017-06-21T09:35:14.233Z,30.33
2017-06-21T09:36:26.777Z,30.51
2017-06-21T09:37:39.316Z,30.67
2017-06-21T09:38:51.841Z,30.76
2017-06-21T09:40:03.859Z,30.92
2017-06-21T09:41:16.109Z,30.96
2017-06-21T09:42:28.717Z,31.1
2017-06-21T09:43:41.004Z,31.11
2017-06-21T09:44:53.296Z,31.17
2017-06-21T09:46:05.560Z,31.44
2017-06-21T09:47:18.113Z,31.6
2017-06-21T09:48:30.079Z,31.72
2017-06-21T09:49:42.030Z,31.87
2017-06-21T09:50:54.596Z,31.97
2017-06-21T09:52:07.113Z,32
2017-06-21T09:53:19.060Z,32.02
2017-06-21T09:54:31.630Z,32.17
2017-06-21T09:55:44.205Z,32.35
2017-06-21T09:56:56.481Z,32.35
2017-06-21T09:58:09.055Z,32.45
2017-06-21T09:59:21.643Z,32.53
2017-06-21T10:00:34.214Z,32.57
2017-06-21T10:01:46.788Z,32.79
2017-06-21T10:02:59.035Z,32.95
2017-06-21T10:04:10.976Z,33.04
2017-06-21T10:05:23.549Z,33.2
2017-06-21T10:06:36.120Z,33.33
2017-06-21T10:07:48.660Z,33.36
2017-06-21T10:09:00.910Z,33.6
2017-06-21T10:10:13.465Z,33.81
2017-06-21T10:11:26.059Z,33.81
2017-06-21T10:12:38.036Z,33.92
2017-06-21T10:13:50.617Z,34.14
2017-06-21T10:15:02.861Z,34.16
2017-06-21T10:16:14.836Z,34.18
2017-06-21T10:17:27.414Z,34.14
2017-06-21T10:18:39.962Z,34.14
2017-06-21T10:19:52.256Z,34.19
2017-06-21T10:21:04.815Z,34.1
2017-06-21T10:22:17.073Z,34.25
2017-06-21T10:23:29.621Z,34.09
2017-06-21T10:24:41.878Z,34.07
2017-06-21T10:25:54.457Z,34.16
2017-06-21T10:27:06.696Z,34.06
2017-06-21T10:28:18.944Z,34.04
2017-06-21T10:29:31.212Z,33.98
2017-06-21T10:30:43.187Z,34
2017-06-21T10:31:55.757Z,34.09
2017-06-21T10:33:08.003Z,34.09
2017-06-21T10:34:20.270Z,34.31
2017-06-21T10:35:32.520Z,34.4
2017-06-21T10:36:44.166Z,34.51
2017-06-21T10:37:56.097Z,34.62
2017-06-21T10:39:08.690Z,34.62
2017-06-21T10:40:21.261Z,34.82
2017-06-21T10:41:33.523Z,34.81
2017-06-21T10:42:45.778Z,34.6
2017-06-21T10:43:58.364Z,34.69
2017-06-21T10:45:10.937Z,34.78
2017-06-21T10:46:23.209Z,34.69
2017-06-21T10:47:35.762Z,34.75
2017-06-21T10:48:48.300Z,34.63
2017-06-21T10:50:00.543Z,34.59
2017-06-21T10:51:12.802Z,34.7
2017-06-21T10:52:25.062Z,34.63
2017-06-21T10:53:37.605Z,34.63
2017-06-21T10:54:49.859Z,34.62
2017-06-21T10:56:01.823Z,34.7
2017-06-21T10:57:14.073Z,34.91
2017-06-21T10:58:26.642Z,34.86
2017-06-21T10:59:39.188Z,34.93
2017-06-21T11:00:51.459Z,34.97
2017-06-21T11:02:04.026Z,34.75
2017-06-21T11:03:16.302Z,34.7
2017-06-21T11:04:28.859Z,34.63
2017-06-21T11:05:41.440Z,34.44
2017-06-21T11:06:53.702Z,34.44
2017-06-21T11:08:06.243Z,34.46
2017-06-21T11:09:18.802Z,34.46
2017-06-21T11:10:31.401Z,34.37
2017-06-21T11:11:43.945Z,34.38
2017-06-21T11:12:55.627Z,34.43
2017-06-21T11:14:08.172Z,34.6
2017-06-21T11:15:20.719Z,34.89
2017-06-21T11:16:33.260Z,35.04
2017-06-21T11:17:46.052Z,34.94
2017-06-21T11:18:58.298Z,35.01
2017-06-21T11:20:10.848Z,35.08
2017-06-21T11:21:23.420Z,35.26
2017-06-21T11:22:35.683Z,35.31
2017-06-21T11:23:47.913Z,35.49
2017-06-21T11:25:00.452Z,35.54
2017-06-21T11:26:13.003Z,35.57
2017-06-21T11:27:25.541Z,35.64
2017-06-21T11:28:38.074Z,35.76
2017-06-21T11:29:50.637Z,35.56
2017-06-21T11:31:03.203Z,35.71
2017-06-21T11:32:15.750Z,35.74
2017-06-21T11:33:28.299Z,35.84
2017-06-21T11:34:40.877Z,35.82
2017-06-21T11:35:53.437Z,35.74
2017-06-21T11:37:05.674Z,35.54
2017-06-21T11:38:18.237Z,35.64
2017-06-21T11:39:30.776Z,35.49
2017-06-21T11:40:43.328Z,35.41
2017-06-21T11:41:55.567Z,35.31
2017-06-21T11:43:08.125Z,35.1
2017-06-21T11:44:20.382Z,35.01
2017-06-21T11:45:32.661Z,34.81
2017-06-21T11:46:44.635Z,34.91
2017-06-21T11:47:56.901Z,34.89
2017-06-21T11:49:09.478Z,35
2017-06-21T11:50:21.771Z,35.03
2017-06-21T11:51:34.313Z,35.04
2017-06-21T11:52:46.563Z,35.16
2017-06-21T11:53:59.105Z,35.26
2017-06-21T11:55:11.358Z,35.37
2017-06-21T11:56:23.906Z,35.6
2017-06-21T11:57:36.177Z,35.74
2017-06-21T11:58:47.545Z,35.57
2017-06-21T11:59:58.916Z,35.47
2017-06-21T12:01:10.554Z,35.47
2017-06-21T12:02:22.502Z,35.3
2017-06-21T12:03:34.178Z,35.08
2017-06-21T12:04:45.847Z,35.04
2017-06-21T12:05:57.521Z,34.76
2017-06-21T12:07:09.485Z,34.75
2017-06-21T12:08:21.739Z,34.73
2017-06-21T12:09:33.398Z,34.73
2017-06-21T12:10:45.053Z,34.59
2017-06-21T12:11:57.289Z,34.5
2017-06-21T12:13:09.546Z,34.46
2017-06-21T12:14:21.482Z,34.35
2017-06-21T12:15:32.864Z,34.22
2017-06-21T12:16:44.534Z,34.25
2017-06-21T12:17:56.152Z,34.1
2017-06-21T12:19:07.800Z,33.97
2017-06-21T12:20:20.037Z,33.79
2017-06-21T12:21:31.691Z,33.54
2017-06-21T12:22:43.937Z,33.39
2017-06-21T12:23:55.562Z,33.4
2017-06-21T12:25:07.831Z,33.47
2017-06-21T12:26:18.573Z,33.42
2017-06-21T12:27:29.925Z,33.45
2017-06-21T12:28:42.170Z,33.61
2017-06-21T12:29:53.512Z,33.65
2017-06-21T12:31:05.487Z,33.69
2017-06-21T12:32:18.036Z,33.72
2017-06-21T12:33:29.995Z,33.94
2017-06-21T12:34:41.059Z,33.97
2017-06-21T12:35:53.609Z,33.98
2017-06-21T12:37:06.188Z,33.94
2017-06-21T12:38:18.750Z,34.07
2017-06-21T12:39:31.297Z,34.21
2017-06-21T12:40:43.842Z,34.28
2017-06-21T12:41:56.075Z,34.26
2017-06-21T12:43:08.037Z,34.25
2017-06-21T12:44:19.392Z,34.32
2017-06-21T12:45:31.066Z,34.26
2017-06-21T12:46:43.611Z,34.28
2017-06-21T12:47:55.875Z,34.18
2017-06-21T12:49:08.122Z,34.22
2017-06-21T12:50:20.372Z,34.31
2017-06-21T12:51:32.931Z,34.41
2017-06-21T12:52:44.912Z,34.48
2017-06-21T12:53:57.177Z,34.43
2017-06-21T12:55:09.124Z,34.38
2017-06-21T12:56:21.692Z,34.25
2017-06-21T12:57:33.671Z,34.31
2017-06-21T12:58:45.919Z,34.41
2017-06-21T12:59:58.177Z,34.32
2017-06-21T13:01:10.152Z,34.1
2017-06-21T13:02:22.395Z,33.97
2017-06-21T13:03:34.923Z,34
2017-06-21T13:04:47.464Z,34.04
2017-06-21T13:05:59.693Z,34.26
2017-06-21T13:07:12.257Z,34.46
2017-06-21T13:08:24.810Z,34.55
2017-06-21T13:09:36.748Z,34.63
2017-06-21T13:10:49.276Z,34.63
2017-06-21T13:12:00.924Z,34.6
2017-06-21T13:13:12.566Z,34.59
2017-06-21T13:14:24.815Z,34.31
2017-06-21T13:15:37.379Z,34.22
2017-06-21T13:16:50.196Z,34.28
2017-06-21T13:18:02.148Z,34.1
2017-06-21T13:19:14.399Z,33.85
2017-06-21T13:20:26.069Z,33.76
2017-06-21T13:21:38.633Z,33.72
2017-06-21T13:22:51.183Z,33.53
2017-06-21T13:24:03.747Z,33.33
2017-06-21T13:25:16.300Z,33.38
2017-06-21T13:26:28.538Z,33.35
2017-06-21T13:27:41.063Z,33.4
2017-06-21T13:28:53.643Z,33.51
2017-06-21T13:30:06.183Z,33.61
2017-06-21T13:31:18.711Z,33.72
2017-06-21T13:32:31.253Z,33.67
2017-06-21T13:33:43.827Z,33.73
2017-06-21T13:34:56.366Z,33.66
2017-06-21T13:36:08.605Z,33.69
2017-06-21T13:37:20.854Z,33.7
2017-06-21T13:38:33.400Z,33.67
2017-06-21T13:39:45.976Z,33.77
2017-06-21T13:40:58.222Z,33.85
2017-06-21T13:42:10.464Z,33.97
2017-06-21T13:43:22.733Z,34.13
2017-06-21T13:44:35.265Z,34.16
2017-06-21T13:45:47.226Z,34.13
2017-06-21T13:46:59.758Z,34.24
2017-06-21T13:48:12.303Z,34.13
2017-06-21T13:49:24.871Z,34.11
2017-06-21T13:50:37.089Z,34.02
2017-06-21T13:51:49.632Z,34.02
2017-06-21T13:53:02.184Z,34.1
2017-06-21T13:54:14.476Z,34.09
2017-06-21T13:55:26.697Z,34
2017-06-21T13:56:39.264Z,33.97
2017-06-21T13:57:51.831Z,33.81
2017-06-21T13:59:03.780Z,33.79
2017-06-21T14:00:16.328Z,33.85
2017-06-21T14:01:28.879Z,33.82
2017-06-21T14:02:41.149Z,33.89
2017-06-21T14:03:53.387Z,33.76
2017-06-21T14:05:05.637Z,33.6
2017-06-21T14:06:18.190Z,33.51
2017-06-21T14:07:30.737Z,33.45
2017-06-21T14:08:43.281Z,33.28
2017-06-21T14:09:55.540Z,33.36
2017-06-21T14:11:07.787Z,33.17
2017-06-21T14:12:20.351Z,33.09
2017-06-21T14:13:32.614Z,33
2017-06-21T14:14:45.178Z,33.05
2017-06-21T14:15:57.145Z,33.03
2017-06-21T14:17:09.419Z,32.98
2017-06-21T14:18:21.937Z,33.01
2017-06-21T14:19:34.465Z,33.03
2017-06-21T14:20:46.416Z,33.04
2017-06-21T14:21:58.975Z,32.98
2017-06-21T14:23:11.257Z,32.98
2017-06-21T14:24:23.805Z,32.91
2017-06-21T14:25:36.338Z,32.88
2017-06-21T14:26:48.883Z,32.82
2017-06-21T14:28:01.137Z,32.72
2017-06-21T14:29:13.686Z,32.66
2017-06-21T14:30:25.954Z,32.59
2017-06-21T14:31:38.476Z,32.44
2017-06-21T14:32:51.038Z,32.46
2017-06-21T14:34:03.284Z,32.44
2017-06-21T14:35:15.539Z,32.46
2017-06-21T14:36:27.755Z,32.35
2017-06-21T14:37:40.288Z,32.29
2017-06-21T14:38:52.851Z,32.19
2017-06-21T14:40:05.114Z,32.11
2017-06-21T14:41:17.359Z,32.22
2017-06-21T14:42:29.610Z,32.22
2017-06-21T14:43:41.868Z,32.19
2017-06-21T14:44:54.426Z,32.2
2017-06-21T14:46:06.980Z,32.34
2017-06-21T14:47:19.247Z,32.35
2017-06-21T14:48:31.473Z,32.41
2017-06-21T14:49:44.006Z,32.38
2017-06-21T14:50:56.538Z,32.44
2017-06-21T14:52:09.109Z,32.34
2017-06-21T14:53:21.644Z,32.26
2017-06-21T14:54:33.873Z,32.02
2017-06-21T14:55:46.418Z,31.82
2017-06-21T14:56:58.967Z,31.6
2017-06-21T14:58:11.502Z,31.37
2017-06-21T14:59:24.034Z,31.18
2017-06-21T15:00:36.273Z,30.96
2017-06-21T15:01:48.815Z,30.78
2017-06-21T15:03:01.361Z,30.43
2017-06-21T15:04:13.911Z,30.33
2017-06-21T15:05:26.153Z,30.02
2017-06-21T15:06:38.711Z,29.74
2017-06-21T15:07:51.256Z,29.24
2017-06-21T15:09:03.494Z,28.93
2017-06-21T15:10:16.044Z,28.65
2017-06-21T15:11:27.971Z,28.46
2017-06-21T15:12:39.904Z,28.27
2017-06-21T15:13:51.535Z,28.12
2017-06-21T15:15:03.206Z,27.66
2017-06-21T15:16:14.824Z,27.66
2017-06-21T15:17:26.145Z,27.25
2017-06-21T15:18:38.066Z,27.15
2017-06-21T15:19:49.967Z,26.97
2017-06-21T15:21:01.907Z,26.73
2017-06-21T15:22:13.256Z,26.76
2017-06-21T15:23:25.195Z,26.6
2017-06-21T15:24:37.420Z,26.51
2017-06-21T15:25:49.036Z,26.39
2017-06-21T15:27:00.966Z,26.39
2017-06-21T15:28:13.487Z,26.26
2017-06-21T15:29:25.133Z,26.07
2017-06-21T15:30:36.750Z,25.99
2017-06-21T15:31:48.092Z,25.86
2017-06-21T15:32:59.720Z,25.83
2017-06-21T15:34:11.348Z,25.8
2017-06-21T15:35:23.603Z,25.68